sensor_id;sensor_type;location;lat;lon;timestamp;P1;durP1;ratioP1;P2;durP2;ratioP2
22922;SDS011;11627;51.322;22.816;2022-07-29T00:00:04;8.40;;;3.97;;
22922;SDS011;11627;51.322;22.816;2022-07-29T00:02:32;14.68;;;4.07;;
22922;SDS011;11627;51.322;22.816;2022-07-29T00:04:57;5.90;;;3.92;;
22922;SDS011;11627;51.322;22.816;2022-07-29T00:07:23;7.50;;;4.03;;
22922;SDS011;11627;51.322;22.816;2022-07-29T00:09:49;7.10;;;3.72;;
22922;SDS011;11627;51.322;22.816;2022-07-29T00:12:15;8.95;;;3.70;;
22922;SDS011;11627;51.322;22.816;2022-07-29T00:14:41;9.25;;;3.60;;
22922;SDS011;11627;51.322;22.816;2022-07-29T00:17:07;9.27;;;3.95;;
22922;SDS011;11627;51.322;22.816;2022-07-29T00:19:33;5.85;;;3.40;;
22922;SDS011;11627;51.322;22.816;2022-07-29T00:21:59;8.18;;;3.67;;
22922;SDS011;11627;51.322;22.816;2022-07-29T00:24:26;11.35;;;4.25;;
22922;SDS011;11627;51.322;22.816;2022-07-29T00:26:52;6.13;;;3.55;;
22922;SDS011;11627;51.322;22.816;2022-07-29T00:29:18;8.40;;;4.00;;
22922;SDS011;11627;51.322;22.816;2022-07-29T00:31:44;13.23;;;4.00;;
22922;SDS011;11627;51.322;22.816;2022-07-29T00:34:10;8.32;;;3.70;;
22922;SDS011;11627;51.322;22.816;2022-07-29T00:36:54;5.40;;;3.53;;
22922;SDS011;11627;51.322;22.816;2022-07-29T00:39:20;8.40;;;3.50;;
22922;SDS011;11627;51.322;22.816;2022-07-29T00:41:46;7.70;;;3.45;;
22922;SDS011;11627;51.322;22.816;2022-07-29T00:44:12;7.03;;;3.70;;
22922;SDS011;11627;51.322;22.816;2022-07-29T00:46:38;6.45;;;3.85;;
22922;SDS011;11627;51.322;22.816;2022-07-29T00:49:03;9.13;;;3.58;;
22922;SDS011;11627;51.322;22.816;2022-07-29T00:51:29;6.63;;;3.58;;
22922;SDS011;11627;51.322;22.816;2022-07-29T00:53:56;6.72;;;3.50;;
22922;SDS011;11627;51.322;22.816;2022-07-29T00:56:22;6.88;;;3.67;;
22922;SDS011;11627;51.322;22.816;2022-07-29T00:58:48;7.22;;;3.88;;
22922;SDS011;11627;51.322;22.816;2022-07-29T01:01:16;8.40;;;4.10;;
22922;SDS011;11627;51.322;22.816;2022-07-29T01:03:42;7.00;;;3.92;;
22922;SDS011;11627;51.322;22.816;2022-07-29T01:06:08;5.35;;;3.20;;
22922;SDS011;11627;51.322;22.816;2022-07-29T01:08:34;4.88;;;3.53;;
22922;SDS011;11627;51.322;22.816;2022-07-29T01:11:01;6.40;;;3.25;;
22922;SDS011;11627;51.322;22.816;2022-07-29T01:13:27;7.72;;;3.40;;
22922;SDS011;11627;51.322;22.816;2022-07-29T01:15:56;5.60;;;3.67;;
22922;SDS011;11627;51.322;22.816;2022-07-29T01:18:34;6.65;;;3.20;;
22922;SDS011;11627;51.322;22.816;2022-07-29T01:21:12;8.25;;;3.63;;
22922;SDS011;11627;51.322;22.816;2022-07-29T01:26:49;6.13;;;3.58;;
22922;SDS011;11627;51.322;22.816;2022-07-29T01:29:26;4.32;;;3.05;;
22922;SDS011;11627;51.322;22.816;2022-07-29T01:32:27;6.57;;;3.40;;
22922;SDS011;11627;51.322;22.816;2022-07-29T01:35:10;6.70;;;3.22;;
22922;SDS011;11627;51.322;22.816;2022-07-29T01:37:51;8.27;;;3.25;;
22922;SDS011;11627;51.322;22.816;2022-07-29T01:43:09;7.18;;;3.40;;
22922;SDS011;11627;51.322;22.816;2022-07-29T01:45:53;6.50;;;3.10;;
22922;SDS011;11627;51.322;22.816;2022-07-29T01:48:33;6.60;;;3.13;;
22922;SDS011;11627;51.322;22.816;2022-07-29T01:51:19;4.18;;;2.92;;
22922;SDS011;11627;51.322;22.816;2022-07-29T01:53:58;10.43;;;3.55;;
22922;SDS011;11627;51.322;22.816;2022-07-29T01:56:42;8.68;;;3.33;;
22922;SDS011;11627;51.322;22.816;2022-07-29T01:59:10;4.50;;;3.05;;
22922;SDS011;11627;51.322;22.816;2022-07-29T02:01:37;9.23;;;3.53;;
22922;SDS011;11627;51.322;22.816;2022-07-29T02:04:06;5.47;;;3.53;;
22922;SDS011;11627;51.322;22.816;2022-07-29T02:06:35;7.10;;;3.58;;
22922;SDS011;11627;51.322;22.816;2022-07-29T02:09:03;10.77;;;4.13;;
22922;SDS011;11627;51.322;22.816;2022-07-29T02:11:31;6.90;;;3.05;;
22922;SDS011;11627;51.322;22.816;2022-07-29T02:13:59;5.95;;;3.55;;
22922;SDS011;11627;51.322;22.816;2022-07-29T02:16:26;4.55;;;3.20;;
22922;SDS011;11627;51.322;22.816;2022-07-29T02:18:56;4.85;;;3.00;;
22922;SDS011;11627;51.322;22.816;2022-07-29T02:21:25;3.83;;;2.95;;
22922;SDS011;11627;51.322;22.816;2022-07-29T02:23:53;5.63;;;3.13;;
22922;SDS011;11627;51.322;22.816;2022-07-29T02:26:21;6.13;;;3.88;;
22922;SDS011;11627;51.322;22.816;2022-07-29T02:28:49;7.07;;;3.45;;
22922;SDS011;11627;51.322;22.816;2022-07-29T02:31:18;5.47;;;3.33;;
22922;SDS011;11627;51.322;22.816;2022-07-29T02:33:48;6.90;;;3.33;;
22922;SDS011;11627;51.322;22.816;2022-07-29T02:36:17;6.90;;;3.10;;
22922;SDS011;11627;51.322;22.816;2022-07-29T02:38:46;7.50;;;3.30;;
22922;SDS011;11627;51.322;22.816;2022-07-29T02:41:20;7.20;;;3.15;;
22922;SDS011;11627;51.322;22.816;2022-07-29T02:43:56;5.82;;;3.25;;
22922;SDS011;11627;51.322;22.816;2022-07-29T02:46:29;6.00;;;3.22;;
22922;SDS011;11627;51.322;22.816;2022-07-29T02:48:59;8.98;;;3.20;;
22922;SDS011;11627;51.322;22.816;2022-07-29T02:52:05;4.18;;;2.70;;
22922;SDS011;11627;51.322;22.816;2022-07-29T02:57:58;5.22;;;3.15;;
22922;SDS011;11627;51.322;22.816;2022-07-29T03:00:33;5.18;;;3.20;;
22922;SDS011;11627;51.322;22.816;2022-07-29T03:03:03;6.20;;;2.92;;
22922;SDS011;11627;51.322;22.816;2022-07-29T03:05:41;5.88;;;2.92;;
22922;SDS011;11627;51.322;22.816;2022-07-29T03:08:08;6.85;;;2.90;;
22922;SDS011;11627;51.322;22.816;2022-07-29T03:10:36;5.97;;;3.03;;
22922;SDS011;11627;51.322;22.816;2022-07-29T03:13:04;5.80;;;2.90;;
22922;SDS011;11627;51.322;22.816;2022-07-29T03:15:31;8.27;;;3.30;;
22922;SDS011;11627;51.322;22.816;2022-07-29T03:17:57;6.85;;;3.00;;
22922;SDS011;11627;51.322;22.816;2022-07-29T03:20:24;5.03;;;3.28;;
22922;SDS011;11627;51.322;22.816;2022-07-29T03:22:50;6.63;;;2.97;;
22922;SDS011;11627;51.322;22.816;2022-07-29T03:25:17;4.57;;;3.08;;
22922;SDS011;11627;51.322;22.816;2022-07-29T03:27:45;6.30;;;3.28;;
22922;SDS011;11627;51.322;22.816;2022-07-29T03:30:12;3.78;;;2.95;;
22922;SDS011;11627;51.322;22.816;2022-07-29T03:32:39;5.47;;;3.50;;
22922;SDS011;11627;51.322;22.816;2022-07-29T03:35:06;5.05;;;3.13;;
22922;SDS011;11627;51.322;22.816;2022-07-29T03:37:32;6.00;;;3.17;;
22922;SDS011;11627;51.322;22.816;2022-07-29T03:39:58;6.75;;;3.53;;
22922;SDS011;11627;51.322;22.816;2022-07-29T03:42:28;6.57;;;3.55;;
22922;SDS011;11627;51.322;22.816;2022-07-29T03:44:58;9.85;;;3.13;;
22922;SDS011;11627;51.322;22.816;2022-07-29T03:47:28;8.60;;;3.10;;
22922;SDS011;11627;51.322;22.816;2022-07-29T03:49:58;6.30;;;3.13;;
22922;SDS011;11627;51.322;22.816;2022-07-29T03:52:31;3.97;;;2.80;;
22922;SDS011;11627;51.322;22.816;2022-07-29T03:54:58;6.78;;;2.90;;
22922;SDS011;11627;51.322;22.816;2022-07-29T03:57:25;5.97;;;2.67;;
22922;SDS011;11627;51.322;22.816;2022-07-29T03:59:53;4.72;;;3.00;;
22922;SDS011;11627;51.322;22.816;2022-07-29T04:02:38;6.47;;;2.85;;
22922;SDS011;11627;51.322;22.816;2022-07-29T04:05:05;8.32;;;3.38;;
22922;SDS011;11627;51.322;22.816;2022-07-29T04:07:37;7.93;;;4.20;;
22922;SDS011;11627;51.322;22.816;2022-07-29T04:10:03;7.07;;;3.80;;
22922;SDS011;11627;51.322;22.816;2022-07-29T04:12:29;5.25;;;4.03;;
22922;SDS011;11627;51.322;22.816;2022-07-29T04:14:55;6.50;;;3.97;;
22922;SDS011;11627;51.322;22.816;2022-07-29T04:17:21;6.88;;;4.18;;
22922;SDS011;11627;51.322;22.816;2022-07-29T04:19:46;7.85;;;3.95;;
22922;SDS011;11627;51.322;22.816;2022-07-29T04:22:12;7.07;;;3.42;;
22922;SDS011;11627;51.322;22.816;2022-07-29T04:24:38;6.57;;;3.55;;
22922;SDS011;11627;51.322;22.816;2022-07-29T04:27:04;3.88;;;3.05;;
22922;SDS011;11627;51.322;22.816;2022-07-29T04:29:29;8.15;;;3.53;;
22922;SDS011;11627;51.322;22.816;2022-07-29T04:31:55;4.38;;;3.40;;
22922;SDS011;11627;51.322;22.816;2022-07-29T04:34:21;6.38;;;4.28;;
22922;SDS011;11627;51.322;22.816;2022-07-29T04:36:46;7.10;;;4.05;;
22922;SDS011;11627;51.322;22.816;2022-07-29T04:39:12;3.97;;;3.40;;
22922;SDS011;11627;51.322;22.816;2022-07-29T04:41:38;4.82;;;3.10;;
22922;SDS011;11627;51.322;22.816;2022-07-29T04:44:04;5.43;;;3.25;;
22922;SDS011;11627;51.322;22.816;2022-07-29T04:46:30;3.60;;;3.00;;
22922;SDS011;11627;51.322;22.816;2022-07-29T04:48:56;5.05;;;2.95;;
22922;SDS011;11627;51.322;22.816;2022-07-29T04:51:22;3.38;;;3.00;;
22922;SDS011;11627;51.322;22.816;2022-07-29T04:53:47;7.93;;;3.10;;
22922;SDS011;11627;51.322;22.816;2022-07-29T04:56:13;3.60;;;3.13;;
22922;SDS011;11627;51.322;22.816;2022-07-29T04:58:39;5.03;;;2.72;;
22922;SDS011;11627;51.322;22.816;2022-07-29T05:01:05;5.50;;;3.10;;
22922;SDS011;11627;51.322;22.816;2022-07-29T05:03:31;5.75;;;2.97;;
22922;SDS011;11627;51.322;22.816;2022-07-29T05:05:56;7.70;;;2.88;;
22922;SDS011;11627;51.322;22.816;2022-07-29T05:08:22;5.88;;;3.08;;
22922;SDS011;11627;51.322;22.816;2022-07-29T05:10:48;5.25;;;2.90;;
22922;SDS011;11627;51.322;22.816;2022-07-29T05:13:14;5.25;;;2.67;;
22922;SDS011;11627;51.322;22.816;2022-07-29T05:15:39;8.52;;;2.80;;
22922;SDS011;11627;51.322;22.816;2022-07-29T05:18:05;4.35;;;2.92;;
22922;SDS011;11627;51.322;22.816;2022-07-29T05:20:30;4.60;;;3.00;;
22922;SDS011;11627;51.322;22.816;2022-07-29T05:22:58;3.88;;;2.60;;
22922;SDS011;11627;51.322;22.816;2022-07-29T05:25:25;4.05;;;2.50;;
22922;SDS011;11627;51.322;22.816;2022-07-29T05:27:52;4.80;;;2.58;;
22922;SDS011;11627;51.322;22.816;2022-07-29T05:30:19;3.78;;;2.60;;
22922;SDS011;11627;51.322;22.816;2022-07-29T05:32:45;3.83;;;2.60;;
22922;SDS011;11627;51.322;22.816;2022-07-29T05:35:12;4.43;;;2.70;;
22922;SDS011;11627;51.322;22.816;2022-07-29T05:37:39;2.78;;;2.22;;
22922;SDS011;11627;51.322;22.816;2022-07-29T05:40:05;4.68;;;2.75;;
22922;SDS011;11627;51.322;22.816;2022-07-29T05:42:32;4.63;;;2.40;;
22922;SDS011;11627;51.322;22.816;2022-07-29T05:44:58;4.28;;;2.55;;
22922;SDS011;11627;51.322;22.816;2022-07-29T05:47:24;4.65;;;2.17;;
22922;SDS011;11627;51.322;22.816;2022-07-29T05:49:51;2.65;;;2.45;;
22922;SDS011;11627;51.322;22.816;2022-07-29T05:52:16;3.55;;;2.15;;
22922;SDS011;11627;51.322;22.816;2022-07-29T05:54:42;3.88;;;2.33;;
22922;SDS011;11627;51.322;22.816;2022-07-29T05:57:15;7.53;;;2.45;;
22922;SDS011;11627;51.322;22.816;2022-07-29T05:59:42;3.67;;;2.28;;
22922;SDS011;11627;51.322;22.816;2022-07-29T06:02:08;3.40;;;1.83;;
22922;SDS011;11627;51.322;22.816;2022-07-29T06:04:35;2.33;;;1.67;;
22922;SDS011;11627;51.322;22.816;2022-07-29T06:07:01;4.25;;;1.63;;
22922;SDS011;11627;51.322;22.816;2022-07-29T06:09:27;3.90;;;1.48;;
22922;SDS011;11627;51.322;22.816;2022-07-29T06:11:53;7.20;;;1.58;;
22922;SDS011;11627;51.322;22.816;2022-07-29T06:14:18;4.60;;;1.30;;
22922;SDS011;11627;51.322;22.816;2022-07-29T06:16:44;2.47;;;1.50;;
22922;SDS011;11627;51.322;22.816;2022-07-29T06:19:10;1.58;;;1.10;;
22922;SDS011;11627;51.322;22.816;2022-07-29T06:21:36;3.80;;;1.00;;
22922;SDS011;11627;51.322;22.816;2022-07-29T06:24:01;4.35;;;1.40;;
22922;SDS011;11627;51.322;22.816;2022-07-29T06:26:27;2.83;;;1.33;;
22922;SDS011;11627;51.322;22.816;2022-07-29T06:28:53;2.83;;;1.85;;
22922;SDS011;11627;51.322;22.816;2022-07-29T06:31:18;6.25;;;1.10;;
22922;SDS011;11627;51.322;22.816;2022-07-29T06:33:44;2.35;;;1.00;;
22922;SDS011;11627;51.322;22.816;2022-07-29T06:36:10;3.30;;;1.10;;
22922;SDS011;11627;51.322;22.816;2022-07-29T06:38:35;3.70;;;1.08;;
22922;SDS011;11627;51.322;22.816;2022-07-29T06:41:03;2.78;;;1.20;;
22922;SDS011;11627;51.322;22.816;2022-07-29T06:43:35;1.85;;;1.25;;
22922;SDS011;11627;51.322;22.816;2022-07-29T06:46:04;4.90;;;1.20;;
22922;SDS011;11627;51.322;22.816;2022-07-29T06:48:34;4.45;;;1.15;;
22922;SDS011;11627;51.322;22.816;2022-07-29T06:51:01;4.07;;;1.00;;
22922;SDS011;11627;51.322;22.816;2022-07-29T06:53:28;3.22;;;0.98;;
22922;SDS011;11627;51.322;22.816;2022-07-29T06:55:55;2.53;;;1.10;;
22922;SDS011;11627;51.322;22.816;2022-07-29T06:58:23;4.00;;;1.10;;
22922;SDS011;11627;51.322;22.816;2022-07-29T07:00:49;2.92;;;1.02;;
22922;SDS011;11627;51.322;22.816;2022-07-29T07:03:15;2.80;;;1.20;;
22922;SDS011;11627;51.322;22.816;2022-07-29T07:05:42;2.58;;;1.13;;
22922;SDS011;11627;51.322;22.816;2022-07-29T07:08:09;2.20;;;1.00;;
22922;SDS011;11627;51.322;22.816;2022-07-29T07:10:35;0.98;;;0.80;;
22922;SDS011;11627;51.322;22.816;2022-07-29T07:13:01;8.93;;;1.40;;
22922;SDS011;11627;51.322;22.816;2022-07-29T07:15:27;6.55;;;1.00;;
22922;SDS011;11627;51.322;22.816;2022-07-29T07:17:53;2.63;;;1.00;;
22922;SDS011;11627;51.322;22.816;2022-07-29T07:20:19;7.05;;;1.23;;
22922;SDS011;11627;51.322;22.816;2022-07-29T07:22:45;2.42;;;0.80;;
22922;SDS011;11627;51.322;22.816;2022-07-29T07:25:11;5.05;;;0.80;;
22922;SDS011;11627;51.322;22.816;2022-07-29T07:27:37;3.35;;;0.98;;
22922;SDS011;11627;51.322;22.816;2022-07-29T07:30:03;3.08;;;1.00;;
22922;SDS011;11627;51.322;22.816;2022-07-29T07:32:31;4.78;;;0.88;;
22922;SDS011;11627;51.322;22.816;2022-07-29T07:35:00;2.88;;;1.02;;
22922;SDS011;11627;51.322;22.816;2022-07-29T07:37:26;4.43;;;1.02;;
22922;SDS011;11627;51.322;22.816;2022-07-29T07:39:52;2.47;;;0.93;;
22922;SDS011;11627;51.322;22.816;2022-07-29T07:42:18;4.22;;;1.20;;
22922;SDS011;11627;51.322;22.816;2022-07-29T07:44:44;1.60;;;0.90;;
22922;SDS011;11627;51.322;22.816;2022-07-29T07:47:11;2.47;;;1.15;;
22922;SDS011;11627;51.322;22.816;2022-07-29T07:49:37;3.40;;;0.98;;
22922;SDS011;11627;51.322;22.816;2022-07-29T07:52:04;5.25;;;0.90;;
22922;SDS011;11627;51.322;22.816;2022-07-29T07:54:30;2.55;;;1.00;;
22922;SDS011;11627;51.322;22.816;2022-07-29T07:56:56;1.38;;;1.00;;
22922;SDS011;11627;51.322;22.816;2022-07-29T07:59:22;2.03;;;0.85;;
22922;SDS011;11627;51.322;22.816;2022-07-29T08:01:48;2.42;;;0.85;;
22922;SDS011;11627;51.322;22.816;2022-07-29T08:04:14;2.00;;;0.88;;
22922;SDS011;11627;51.322;22.816;2022-07-29T08:06:40;1.25;;;0.80;;
22922;SDS011;11627;51.322;22.816;2022-07-29T08:09:06;3.92;;;0.95;;
22922;SDS011;11627;51.322;22.816;2022-07-29T08:11:32;3.25;;;0.75;;
22922;SDS011;11627;51.322;22.816;2022-07-29T08:13:57;2.97;;;0.85;;
22922;SDS011;11627;51.322;22.816;2022-07-29T08:16:23;3.33;;;0.70;;
22922;SDS011;11627;51.322;22.816;2022-07-29T08:18:50;2.20;;;0.85;;
22922;SDS011;11627;51.322;22.816;2022-07-29T08:21:17;0.82;;;0.68;;
22922;SDS011;11627;51.322;22.816;2022-07-29T08:23:44;0.73;;;0.60;;
22922;SDS011;11627;51.322;22.816;2022-07-29T08:26:12;1.08;;;0.55;;
22922;SDS011;11627;51.322;22.816;2022-07-29T08:28:39;1.73;;;0.90;;
22922;SDS011;11627;51.322;22.816;2022-07-29T08:31:09;2.85;;;0.90;;
22922;SDS011;11627;51.322;22.816;2022-07-29T08:33:35;2.72;;;0.88;;
22922;SDS011;11627;51.322;22.816;2022-07-29T08:36:01;2.42;;;0.90;;
22922;SDS011;11627;51.322;22.816;2022-07-29T08:38:27;1.60;;;0.80;;
22922;SDS011;11627;51.322;22.816;2022-07-29T08:40:52;1.02;;;0.60;;
22922;SDS011;11627;51.322;22.816;2022-07-29T08:43:19;1.20;;;0.70;;
22922;SDS011;11627;51.322;22.816;2022-07-29T08:45:45;1.80;;;0.75;;
22922;SDS011;11627;51.322;22.816;2022-07-29T08:48:15;0.85;;;0.70;;
22922;SDS011;11627;51.322;22.816;2022-07-29T08:50:43;2.95;;;0.70;;
22922;SDS011;11627;51.322;22.816;2022-07-29T08:53:11;2.65;;;0.90;;
22922;SDS011;11627;51.322;22.816;2022-07-29T08:55:40;1.63;;;0.70;;
22922;SDS011;11627;51.322;22.816;2022-07-29T08:58:09;1.00;;;0.70;;
22922;SDS011;11627;51.322;22.816;2022-07-29T09:00:41;10.05;;;1.15;;
22922;SDS011;11627;51.322;22.816;2022-07-29T09:03:19;4.13;;;1.00;;
22922;SDS011;11627;51.322;22.816;2022-07-29T09:05:47;2.85;;;1.33;;
22922;SDS011;11627;51.322;22.816;2022-07-29T09:08:14;13.05;;;1.48;;
22922;SDS011;11627;51.322;22.816;2022-07-29T09:10:41;7.15;;;0.98;;
22922;SDS011;11627;51.322;22.816;2022-07-29T09:13:07;2.25;;;0.75;;
22922;SDS011;11627;51.322;22.816;2022-07-29T09:15:34;3.15;;;0.90;;
22922;SDS011;11627;51.322;22.816;2022-07-29T09:17:59;2.85;;;0.60;;
22922;SDS011;11627;51.322;22.816;2022-07-29T09:20:26;1.25;;;0.70;;
22922;SDS011;11627;51.322;22.816;2022-07-29T09:23:12;1.60;;;0.70;;
22922;SDS011;11627;51.322;22.816;2022-07-29T09:25:39;1.58;;;0.70;;
22922;SDS011;11627;51.322;22.816;2022-07-29T09:28:06;1.85;;;0.60;;
22922;SDS011;11627;51.322;22.816;2022-07-29T09:31:10;3.08;;;0.80;;
22922;SDS011;11627;51.322;22.816;2022-07-29T09:33:33;4.68;;;1.10;;
22922;SDS011;11627;51.322;22.816;2022-07-29T09:36:04;1.20;;;0.65;;
22922;SDS011;11627;51.322;22.816;2022-07-29T09:38:32;1.08;;;0.70;;
22922;SDS011;11627;51.322;22.816;2022-07-29T09:41:01;1.08;;;0.57;;
22922;SDS011;11627;51.322;22.816;2022-07-29T09:43:28;0.95;;;0.60;;
22922;SDS011;11627;51.322;22.816;2022-07-29T09:45:54;1.65;;;0.70;;
22922;SDS011;11627;51.322;22.816;2022-07-29T09:48:21;1.08;;;0.65;;
22922;SDS011;11627;51.322;22.816;2022-07-29T09:50:49;1.40;;;0.65;;
22922;SDS011;11627;51.322;22.816;2022-07-29T09:55:57;37.53;;;2.20;;
22922;SDS011;11627;51.322;22.816;2022-07-29T09:58:23;3.95;;;1.00;;
22922;SDS011;11627;51.322;22.816;2022-07-29T10:00:49;5.85;;;0.60;;
22922;SDS011;11627;51.322;22.816;2022-07-29T10:03:17;2.45;;;0.65;;
22922;SDS011;11627;51.322;22.816;2022-07-29T10:05:43;0.70;;;0.70;;
22922;SDS011;11627;51.322;22.816;2022-07-29T10:08:10;1.52;;;0.55;;
22922;SDS011;11627;51.322;22.816;2022-07-29T10:10:41;1.65;;;0.70;;
22922;SDS011;11627;51.322;22.816;2022-07-29T10:13:14;3.22;;;0.70;;
22922;SDS011;11627;51.322;22.816;2022-07-29T10:15:40;2.58;;;0.60;;
22922;SDS011;11627;51.322;22.816;2022-07-29T10:18:09;4.68;;;0.90;;
22922;SDS011;11627;51.322;22.816;2022-07-29T10:20:38;1.02;;;0.60;;
22922;SDS011;11627;51.322;22.816;2022-07-29T10:23:04;1.85;;;0.60;;
22922;SDS011;11627;51.322;22.816;2022-07-29T10:25:30;1.88;;;0.70;;
22922;SDS011;11627;51.322;22.816;2022-07-29T10:27:56;1.90;;;0.70;;
22922;SDS011;11627;51.322;22.816;2022-07-29T10:30:24;1.08;;;0.60;;
22922;SDS011;11627;51.322;22.816;2022-07-29T10:36:20;3.05;;;0.80;;
22922;SDS011;11627;51.322;22.816;2022-07-29T10:39:19;1.90;;;0.85;;
22922;SDS011;11627;51.322;22.816;2022-07-29T10:44:49;3.03;;;0.80;;
22922;SDS011;11627;51.322;22.816;2022-07-29T10:47:20;7.55;;;1.10;;
22922;SDS011;11627;51.322;22.816;2022-07-29T10:55:30;1.40;;;0.80;;
22922;SDS011;11627;51.322;22.816;2022-07-29T10:58:14;1.38;;;0.70;;
22922;SDS011;11627;51.322;22.816;2022-07-29T11:00:43;3.03;;;0.60;;
22922;SDS011;11627;51.322;22.816;2022-07-29T11:06:12;1.40;;;0.90;;
22922;SDS011;11627;51.322;22.816;2022-07-29T11:08:39;7.90;;;0.80;;
22922;SDS011;11627;51.322;22.816;2022-07-29T11:16:15;2.78;;;0.60;;
22922;SDS011;11627;51.322;22.816;2022-07-29T11:21:43;1.48;;;0.70;;
22922;SDS011;11627;51.322;22.816;2022-07-29T11:24:36;1.60;;;0.80;;
22922;SDS011;11627;51.322;22.816;2022-07-29T11:27:19;3.78;;;0.70;;
22922;SDS011;11627;51.322;22.816;2022-07-29T11:29:51;1.48;;;0.65;;
22922;SDS011;11627;51.322;22.816;2022-07-29T11:32:23;0.55;;;0.55;;
22922;SDS011;11627;51.322;22.816;2022-07-29T11:37:40;4.53;;;0.82;;
22922;SDS011;11627;51.322;22.816;2022-07-29T11:45:22;5.03;;;0.90;;
22922;SDS011;11627;51.322;22.816;2022-07-29T11:47:50;0.82;;;0.80;;
22922;SDS011;11627;51.322;22.816;2022-07-29T11:50:26;2.95;;;1.00;;
22922;SDS011;11627;51.322;22.816;2022-07-29T11:52:58;2.17;;;0.90;;
22922;SDS011;11627;51.322;22.816;2022-07-29T11:55:25;0.95;;;0.93;;
22922;SDS011;11627;51.322;22.816;2022-07-29T11:57:52;3.88;;;2.10;;
22922;SDS011;11627;51.322;22.816;2022-07-29T12:00:22;1.98;;;1.40;;
22922;SDS011;11627;51.322;22.816;2022-07-29T12:03:22;3.83;;;0.88;;
22922;SDS011;11627;51.322;22.816;2022-07-29T12:05:50;1.45;;;0.90;;
22922;SDS011;11627;51.322;22.816;2022-07-29T12:08:18;2.50;;;0.73;;
22922;SDS011;11627;51.322;22.816;2022-07-29T12:10:47;3.28;;;0.82;;
22922;SDS011;11627;51.322;22.816;2022-07-29T12:13:17;6.63;;;1.30;;
22922;SDS011;11627;51.322;22.816;2022-07-29T12:15:52;1.00;;;0.70;;
22922;SDS011;11627;51.322;22.816;2022-07-29T12:18:19;1.85;;;0.90;;
22922;SDS011;11627;51.322;22.816;2022-07-29T12:20:46;2.35;;;1.27;;
22922;SDS011;11627;51.322;22.816;2022-07-29T12:23:12;1.25;;;0.90;;
22922;SDS011;11627;51.322;22.816;2022-07-29T12:25:40;2.50;;;0.80;;
22922;SDS011;11627;51.322;22.816;2022-07-29T12:28:11;3.70;;;1.50;;
22922;SDS011;11627;51.322;22.816;2022-07-29T12:30:42;4.40;;;0.88;;
22922;SDS011;11627;51.322;22.816;2022-07-29T12:33:29;4.65;;;1.40;;
22922;SDS011;11627;51.322;22.816;2022-07-29T12:35:58;4.03;;;1.00;;
22922;SDS011;11627;51.322;22.816;2022-07-29T12:38:27;2.78;;;1.33;;
22922;SDS011;11627;51.322;22.816;2022-07-29T12:40:53;2.15;;;1.00;;
22922;SDS011;11627;51.322;22.816;2022-07-29T12:43:20;0.93;;;0.90;;
22922;SDS011;11627;51.322;22.816;2022-07-29T12:45:51;1.98;;;1.10;;
22922;SDS011;11627;51.322;22.816;2022-07-29T12:48:41;1.52;;;1.02;;
22922;SDS011;11627;51.322;22.816;2022-07-29T12:51:07;1.40;;;1.30;;
22922;SDS011;11627;51.322;22.816;2022-07-29T12:53:35;3.28;;;1.50;;
22922;SDS011;11627;51.322;22.816;2022-07-29T12:56:04;4.18;;;1.48;;
22922;SDS011;11627;51.322;22.816;2022-07-29T12:58:37;1.52;;;1.27;;
22922;SDS011;11627;51.322;22.816;2022-07-29T13:01:07;2.47;;;1.33;;
22922;SDS011;11627;51.322;22.816;2022-07-29T13:09:09;3.13;;;1.13;;
22922;SDS011;11627;51.322;22.816;2022-07-29T13:11:40;4.18;;;1.40;;
22922;SDS011;11627;51.322;22.816;2022-07-29T13:14:12;2.28;;;1.30;;
22922;SDS011;11627;51.322;22.816;2022-07-29T13:17:02;1.20;;;1.02;;
22922;SDS011;11627;51.322;22.816;2022-07-29T13:22:19;6.22;;;1.30;;
22922;SDS011;11627;51.322;22.816;2022-07-29T13:24:52;1.88;;;1.30;;
22922;SDS011;11627;51.322;22.816;2022-07-29T13:27:21;2.45;;;1.33;;
22922;SDS011;11627;51.322;22.816;2022-07-29T13:29:49;2.10;;;1.27;;
22922;SDS011;11627;51.322;22.816;2022-07-29T13:32:17;2.78;;;1.42;;
22922;SDS011;11627;51.322;22.816;2022-07-29T13:34:46;4.82;;;1.65;;
22922;SDS011;11627;51.322;22.816;2022-07-29T13:37:12;2.00;;;1.30;;
22922;SDS011;11627;51.322;22.816;2022-07-29T13:39:37;2.97;;;1.30;;
22922;SDS011;11627;51.322;22.816;2022-07-29T13:42:04;2.85;;;1.50;;
22922;SDS011;11627;51.322;22.816;2022-07-29T13:44:31;2.13;;;1.48;;
22922;SDS011;11627;51.322;22.816;2022-07-29T13:46:57;2.75;;;1.80;;
22922;SDS011;11627;51.322;22.816;2022-07-29T13:49:23;1.63;;;1.48;;
22922;SDS011;11627;51.322;22.816;2022-07-29T13:51:50;1.60;;;1.50;;
22922;SDS011;11627;51.322;22.816;2022-07-29T13:54:16;6.22;;;1.80;;
22922;SDS011;11627;51.322;22.816;2022-07-29T13:56:41;2.65;;;1.60;;
22922;SDS011;11627;51.322;22.816;2022-07-29T13:59:07;2.08;;;1.17;;
22922;SDS011;11627;51.322;22.816;2022-07-29T14:01:34;2.20;;;1.20;;
22922;SDS011;11627;51.322;22.816;2022-07-29T14:04:00;1.30;;;1.25;;
22922;SDS011;11627;51.322;22.816;2022-07-29T14:06:26;2.47;;;1.80;;
22922;SDS011;11627;51.322;22.816;2022-07-29T14:08:52;2.65;;;1.58;;
22922;SDS011;11627;51.322;22.816;2022-07-29T14:11:17;5.50;;;1.58;;
22922;SDS011;11627;51.322;22.816;2022-07-29T14:13:43;2.58;;;1.67;;
22922;SDS011;11627;51.322;22.816;2022-07-29T14:16:09;1.90;;;1.77;;
22922;SDS011;11627;51.322;22.816;2022-07-29T14:18:34;1.83;;;1.60;;
22922;SDS011;11627;51.322;22.816;2022-07-29T14:21:00;2.42;;;1.60;;
22922;SDS011;11627;51.322;22.816;2022-07-29T14:23:26;6.05;;;1.70;;
22922;SDS011;11627;51.322;22.816;2022-07-29T14:25:52;4.25;;;1.45;;
22922;SDS011;11627;51.322;22.816;2022-07-29T14:28:18;1.55;;;1.15;;
22922;SDS011;11627;51.322;22.816;2022-07-29T14:30:43;2.03;;;1.40;;
22922;SDS011;11627;51.322;22.816;2022-07-29T14:33:09;3.10;;;1.63;;
22922;SDS011;11627;51.322;22.816;2022-07-29T14:35:35;1.60;;;1.38;;
22922;SDS011;11627;51.322;22.816;2022-07-29T14:38:01;2.30;;;1.48;;
22922;SDS011;11627;51.322;22.816;2022-07-29T14:40:26;5.18;;;1.40;;
22922;SDS011;11627;51.322;22.816;2022-07-29T14:42:52;1.88;;;1.55;;
22922;SDS011;11627;51.322;22.816;2022-07-29T14:45:18;4.22;;;1.55;;
22922;SDS011;11627;51.322;22.816;2022-07-29T14:47:43;1.63;;;1.52;;
22922;SDS011;11627;51.322;22.816;2022-07-29T14:50:09;1.50;;;1.40;;
22922;SDS011;11627;51.322;22.816;2022-07-29T14:52:35;2.00;;;1.50;;
22922;SDS011;11627;51.322;22.816;2022-07-29T14:55:01;4.85;;;1.55;;
22922;SDS011;11627;51.322;22.816;2022-07-29T14:57:28;6.70;;;1.70;;
22922;SDS011;11627;51.322;22.816;2022-07-29T14:59:53;3.60;;;1.70;;
22922;SDS011;11627;51.322;22.816;2022-07-29T15:02:19;2.85;;;1.70;;
22922;SDS011;11627;51.322;22.816;2022-07-29T15:04:45;4.38;;;1.80;;
22922;SDS011;11627;51.322;22.816;2022-07-29T15:07:12;3.05;;;1.60;;
22922;SDS011;11627;51.322;22.816;2022-07-29T15:09:39;2.03;;;1.80;;
22922;SDS011;11627;51.322;22.816;2022-07-29T15:12:05;2.97;;;1.85;;
22922;SDS011;11627;51.322;22.816;2022-07-29T15:14:32;2.20;;;1.70;;
22922;SDS011;11627;51.322;22.816;2022-07-29T15:16:57;1.65;;;1.55;;
22922;SDS011;11627;51.322;22.816;2022-07-29T15:19:23;3.65;;;1.65;;
22922;SDS011;11627;51.322;22.816;2022-07-29T15:21:49;2.22;;;1.70;;
22922;SDS011;11627;51.322;22.816;2022-07-29T15:24:15;1.65;;;1.40;;
22922;SDS011;11627;51.322;22.816;2022-07-29T15:26:42;3.25;;;2.08;;
22922;SDS011;11627;51.322;22.816;2022-07-29T15:29:08;2.20;;;1.80;;
22922;SDS011;11627;51.322;22.816;2022-07-29T15:31:34;1.83;;;1.38;;